Time;durP1;ratioP1;P1;durP2;ratioP2;P2;SDS_P1;SDS_P2;PMS_P1;PMS_P2;Temp;Humidity;BMP_temperature;BMP_pressure;BME280_temperature;BME280_humidity;BME280_pressure;Samples;Min_cycle;Max_cycle;Signal;HPM_P1;HPM_P2
2023/04/30 00:02:07;;;;;;;;;;;;;;;;;;6208469;22;20329;-83
2023/04/30 00:04:33;;;;;;;;;;;;;;;;;;6208531;22;19919;-83
2023/04/30 00:10:01;;;;;;;;;;;;;;;;;;6262809;22;19919;-83
2023/04/30 00:12:29;;;;;;;;;;;;;;;;;;6236935;22;19962;-83
2023/04/30 00:14:58;;;;;;;;;;;;;;;;;;6234056;22;19966;-83
2023/04/30 00:17:29;;;;;;;;;;;;;;;;;;6235400;22;19926;-82
2023/04/30 00:20:04;;;;;;;;;;;;;;;;;;6234822;22;20382;-83
2023/04/30 00:22:33;;;;;;;;;;;;;;;;;;6211553;22;20268;-83
2023/04/30 00:25:00;;;;;;;;;;;;;;;;;;6207211;22;19983;-83
2023/04/30 00:27:26;;;;;;;;;;;;;;;;;;6209418;22;20359;-83
2023/04/30 00:30:01;;;;;;;;;;;;;;;;;;6211825;22;19915;-83
2023/04/30 00:32:38;;;;;;;;;;;;;;;;;;6211607;22;19923;-83
2023/04/30 00:35:13;;;;;;;;;;;;;;;;;;6205941;22;19920;-83
2023/04/30 00:37:47;;;;;;;;;;;;;;;;;;6206808;22;19923;-83
2023/04/30 00:40:18;;;;;;;;;;;;;;;;;;6206076;22;19982;-83
2023/04/30 00:42:57;;;;;;;;;;;;;;;;;;;;;
2023/04/30 00:45:47;;;;;;;;;;;;;;;;;;6178400;23;19920;-83
2023/04/30 00:48:16;;;;;;;;;;;;;;;;;;6201229;22;19915;-83
2023/04/30 00:53:37;;;;;;;;;;;;;;;;;;6237933;22;19989;-83
2023/04/30 00:56:03;;;;;;;;;;;;;;;;;;6234144;22;19954;-83
2023/04/30 00:58:34;;;;;;;;;;;;;;;;;;6208658;22;19919;-83
2023/04/30 01:01:10;;;;;;;;;;;;;;;;;;6272717;22;19942;-83
2023/04/30 01:03:42;;;;;;;;;;;;;;;;;;6215819;22;19915;-83
2023/04/30 01:06:08;;;;;;;;;;;;;;;;;;6213109;22;19990;-83
2023/04/30 01:08:34;;;;;;;;;;;;;;;;;;6240431;22;19986;-83
2023/04/30 01:11:03;;;;;;;;;;;;;;;;;;6212259;22;19927;-83
2023/04/30 01:13:35;;;;;;;;;;;;;;;;;;6214797;22;19919;-83
2023/04/30 01:16:11;;;;;;;;;;;;;;;;;;6237255;22;19990;-83
2023/04/30 01:18:44;;;;;;;;;;;;;;;;;;6235248;22;19947;-83
2023/04/30 01:21:12;;;;;;;;;;;;;;;;;;6209631;22;19938;-83
2023/04/30 01:23:41;;;;;;;;;;;;;;;;;;6213383;22;20327;-83
2023/04/30 01:26:11;;;;;;;;;;;;;;;;;;6210706;22;19973;-83
2023/04/30 01:28:39;;;;;;;;;;;;;;;;;;6212224;22;19920;-83
2023/04/30 01:31:08;;;;;;;;;;;;;;;;;;6207715;22;19927;-83
2023/04/30 01:33:35;;;;;;;;;;;;;;;;;;6208552;22;19923;-83
2023/04/30 01:36:01;;;;;;;;;;;;;;;;;;6205154;22;19919;-83
2023/04/30 01:38:27;;;;;;;;;;;;;;;;;;6209017;22;19950;-83
2023/04/30 01:41:30;;;;;;;;;;;;;;;;;;;;;
2023/04/30 01:43:57;;;;;;;;;;;;;;;;;;6235673;22;19915;-83
2023/04/30 01:49:38;;;;;;;;;;;;;;;;;;6272105;22;20371;-83
2023/04/30 01:52:06;;;;;;;;;;;;;;;;;;6208547;22;20059;-83
2023/04/30 01:54:41;;;;;;;;;;;;;;;;;;6209968;22;20295;-83
2023/04/30 01:57:07;;;;;;;;;;;;;;;;;;6232911;22;19972;-83
2023/04/30 01:59:36;;;;;;;;;;;;;;;;;;6234455;22;19919;-83
2023/04/30 02:02:05;;;;;;;;;;;;;;;;;;6233627;22;20214;-83
2023/04/30 02:04:31;;;;;;;;;;;;;;;;;;6235413;22;20292;-83
2023/04/30 02:07:00;;;;;;;;;;;;;;;;;;6208893;22;20383;-83
2023/04/30 02:09:26;;;;;;;;;;;;;;;;;;6212544;22;19923;-83
2023/04/30 02:11:56;;;;;;;;;;;;;;;;;;6213548;22;20266;-83
2023/04/30 02:14:28;;;;;;;;;;;;;;;;;;6209296;22;20267;-83
2023/04/30 02:16:59;;;;;;;;;;;;;;;;;;6211560;22;20244;-82
2023/04/30 02:19:37;;;;;;;;;;;;;;;;;;6212756;22;19919;-83
2023/04/30 02:25:11;;;;;;;;;;;;;;;;;;6249753;22;20365;-83
2023/04/30 02:27:39;;;;;;;;;;;;;;;;;;6201698;22;19949;-84
2023/04/30 02:30:18;;;;;;;;;;;;;;;;;;;;;
2023/04/30 02:33:07;;;;;;;;;;;;;;;;;;6248231;22;19950;-83
2023/04/30 02:35:45;;;;;;;;;;;;;;;;;;6210735;22;20029;-83
2023/04/30 02:38:14;;;;;;;;;;;;;;;;;;6224503;22;19915;-83
2023/04/30 02:40:51;;;;;;;;;;;;;;;;;;;;;
2023/04/30 02:43:17;;;;;;;;;;;;;;;;;;6232338;22;19926;-83
2023/04/30 02:45:46;;;;;;;;;;;;;;;;;;6234551;22;20009;-83
2023/04/30 02:48:18;;;;;;;;;;;;;;;;;;6207828;22;20438;-84
2023/04/30 02:50:47;;;;;;;;;;;;;;;;;;6208963;22;20280;-83
2023/04/30 02:53:20;;;;;;;;;;;;;;;;;;6203851;22;19935;-83
2023/04/30 02:55:46;;;;;;;;;;;;;;;;;;6209335;22;19994;-83
2023/04/30 02:58:15;;;;;;;;;;;;;;;;;;6206816;22;19925;-83
2023/04/30 03:00:44;;;;;;;;;;;;;;;;;;6231478;22;19919;-83
2023/04/30 03:03:15;;;;;;;;;;;;;;;;;;6230496;22;19958;-83
2023/04/30 03:05:41;;;;;;;;;;;;;;;;;;6209055;22;19990;-83
2023/04/30 03:08:13;;;;;;;;;;;;;;;;;;6207782;22;19926;-83
2023/04/30 03:10:51;;;;;;;;;;;;;;;;;;6212495;22;19915;-83
2023/04/30 03:13:19;;;;;;;;;;;;;;;;;;6207880;22;20384;-83
2023/04/30 03:15:58;;;;;;;;;;;;;;;;;;6211108;22;19919;-83
2023/04/30 03:18:27;;;;;;;;;;;;;;;;;;6207113;22;19919;-83
2023/04/30 03:20:56;;;;;;;;;;;;;;;;;;6211192;22;19915;-83
2023/04/30 03:23:29;;;;;;;;;;;;;;;;;;6206536;22;20233;-83
2023/04/30 03:26:12;;;;;;;;;;;;;;;;;;6230327;22;20054;-83
2023/04/30 03:28:44;;;;;;;;;;;;;;;;;;6209637;22;19919;-83
2023/04/30 03:31:10;;;;;;;;;;;;;;;;;;6203515;22;19950;-83
2023/04/30 03:33:42;;;;;;;;;;;;;;;;;;6207010;22;19931;-83
2023/04/30 03:36:11;;;;;;;;;;;;;;;;;;6207905;22;20260;-83
2023/04/30 03:38:37;;;;;;;;;;;;;;;;;;6234512;22;20190;-83
2023/04/30 03:41:06;;;;;;;;;;;;;;;;;;6205076;22;19973;-83
2023/04/30 03:43:35;;;;;;;;;;;;;;;;;;6233841;22;19998;-83
2023/04/30 03:46:07;;;;;;;;;;;;;;;;;;6207677;22;19949;-83
2023/04/30 03:48:33;;;;;;;;;;;;;;;;;;6208448;22;19921;-83
2023/04/30 03:51:14;;;;;;;;;;;;;;;;;;6231781;22;20242;-83
2023/04/30 03:53:40;;;;;;;;;;;;;;;;;;6210364;22;19927;-83
2023/04/30 03:56:09;;;;;;;;;;;;;;;;;;6209688;22;19919;-83
2023/04/30 03:58:35;;;;;;;;;;;;;;;;;;6210448;22;19969;-83
2023/04/30 04:01:06;;;;;;;;;;;;;;;;;;6209575;22;19939;-83
2023/04/30 04:03:35;;;;;;;;;;;;;;;;;;6210570;22;19933;-83
2023/04/30 04:06:04;;;;;;;;;;;;;;;;;;6209685;22;19926;-83
2023/04/30 04:08:38;;;;;;;;;;;;;;;;;;6210343;22;19954;-83
2023/04/30 04:11:09;;;;;;;;;;;;;;;;;;6233325;22;19919;-83
2023/04/30 04:13:35;;;;;;;;;;;;;;;;;;6210555;22;19968;-83
2023/04/30 04:16:07;;;;;;;;;;;;;;;;;;6207827;22;19915;-83
2023/04/30 04:18:35;;;;;;;;;;;;;;;;;;6236836;22;19923;-83
2023/04/30 04:21:04;;;;;;;;;;;;;;;;;;6233741;22;20009;-83
2023/04/30 04:23:33;;;;;;;;;;;;;;;;;;6213690;22;20011;-83
2023/04/30 04:26:00;;;;;;;;;;;;;;;;;;6208861;22;19957;-84
2023/04/30 04:28:26;;;;;;;;;;;;;;;;;;6211364;22;19926;-84
2023/04/30 04:30:55;;;;;;;;;;;;;;;;;;6210933;22;19915;-84
2023/04/30 04:33:21;;;;;;;;;;;;;;;;;;6208115;22;20198;-83
2023/04/30 04:35:50;;;;;;;;;;;;;;;;;;6210056;22;19919;-83
2023/04/30 04:38:25;;;;;;;;;;;;;;;;;;6208171;22;20347;-83
2023/04/30 04:41:04;;;;;;;;;;;;;;;;;;6236012;22;20294;-84
2023/04/30 04:44:13;;;;;;;;;;;;;;;;;;6235679;22;19926;-83
2023/04/30 04:49:09;;;;;;;;;;;;;;;;;;6171652;23;19924;-83
2023/04/30 04:51:41;;;;;;;;;;;;;;;;;;6149830;23;19920;-83
2023/04/30 04:54:13;;;;;;;;;;;;;;;;;;6146971;23;19924;-83
2023/04/30 04:56:47;;;;;;;;;;;;;;;;;;6173148;23;19919;-84
2023/04/30 04:59:18;;;;;;;;;;;;;;;;;;6148108;23;19919;-83
2023/04/30 05:01:53;;;;;;;;;;;;;;;;;;6147497;23;19920;-83
2023/04/30 05:04:29;;;;;;;;;;;;;;;;;;6194046;23;20007;-83
2023/04/30 05:06:57;;;;;;;;;;;;;;;;;;6170061;23;19915;-83
2023/04/30 05:09:23;;;;;;;;;;;;;;;;;;6146957;23;19951;-83
2023/04/30 05:11:52;;;;;;;;;;;;;;;;;;6171906;23;19927;-83
2023/04/30 05:14:19;;;;;;;;;;;;;;;;;;6143045;23;19924;-84
2023/04/30 05:16:46;;;;;;;;;;;;;;;;;;6163704;22;20235;-83
2023/04/30 05:25:06;;;;;;;;;;;;;;;;;;6226748;22;19923;-83
2023/04/30 05:27:37;;;;;;;;;;;;;;;;;;6236500;22;20614;-83
2023/04/30 05:30:09;;;;;;;;;;;;;;;;;;6211011;22;19931;-83
2023/04/30 05:32:41;;;;;;;;;;;;;;;;;;6209484;22;19919;-83
2023/04/30 05:35:16;;;;;;;;;;;;;;;;;;6228439;22;19966;-83
2023/04/30 05:37:42;;;;;;;;;;;;;;;;;;6210139;22;19919;-84
2023/04/30 05:40:26;;;;;;;;;;;;;;;;;;6206224;22;19959;-83
2023/04/30 05:42:58;;;;;;;;;;;;;;;;;;6209732;22;19945;-84
2023/04/30 05:45:40;;;;;;;;;;;;;;;;;;6239137;22;20210;-83
2023/04/30 05:48:08;;;;;;;;;;;;;;;;;;6208507;22;20328;-84
2023/04/30 05:50:37;;;;;;;;;;;;;;;;;;6234124;22;20318;-84
2023/04/30 05:53:03;;;;;;;;;;;;;;;;;;6209174;22;19940;-83
2023/04/30 05:55:34;;;;;;;;;;;;;;;;;;6235164;22;19931;-83
2023/04/30 06:01:11;;;;;;;;;;;;;;;;;;6110743;23;20099;-84
2023/04/30 06:03:37;;;;;;;;;;;;;;;;;;6216221;22;19927;-84
2023/04/30 06:06:06;;;;;;;;;;;;;;;;;;6207651;22;20014;-83
2023/04/30 06:08:43;;;;;;;;;;;;;;;;;;6211375;22;19926;-84
2023/04/30 06:11:15;;;;;;;;;;;;;;;;;;6208489;22;19971;-84
2023/04/30 06:13:55;;;;;;;;;;;;;;;;;;6234744;22;19977;-84
2023/04/30 06:16:24;;;;;;;;;;;;;;;;;;6233869;22;19927;-84
2023/04/30 06:21:42;;;;;;;;;;;;;;;;;;6235162;22;19926;-84
2023/04/30 06:24:14;;;;;;;;;;;;;;;;;;6209043;22;20346;-84
2023/04/30 06:26:40;;;;;;;;;;;;;;;;;;6212657;22;19994;-84
2023/04/30 06:32:16;;;;;;;;;;;;;;;;;;6246772;22;19979;-83
2023/04/30 06:34:54;;;;;;;;;;;;;;;;;;6211256;22;20426;-83
2023/04/30 06:37:23;;;;;;;;;;;;;;;;;;6232449;22;20320;-84
2023/04/30 06:39:57;;;;;;;;;;;;;;;;;;6210434;22;20260;-84
2023/04/30 06:42:34;;;;;;;;;;;;;;;;;;6234968;22;19923;-84
2023/04/30 06:45:09;;;;;;;;;;;;;;;;;;6210097;22;19942;-83
2023/04/30 06:47:40;;;;;;;;;;;;;;;;;;6211033;22;19945;-83
2023/04/30 06:50:14;;;;;;;;;;;;;;;;;;6207372;22;19930;-84
2023/04/30 06:52:58;;;;;;;;;;;;;;;;;;6211653;22;19966;-84
2023/04/30 06:55:31;;;;;;;;;;;;;;;;;;6208351;22;19922;-84
2023/04/30 06:58:00;;;;;;;;;;;;;;;;;;6209033;22;20370;-84
2023/04/30 07:00:44;;;;;;;;;;;;;;;;;;6210717;22;19961;-84
2023/04/30 07:03:12;;;;;;;;;;;;;;;;;;6229790;22;20368;-83
2023/04/30 07:05:39;;;;;;;;;;;;;;;;;;6233231;22;20435;-83
2023/04/30 07:08:11;;;;;;;;;;;;;;;;;;6206946;22;19915;-83
2023/04/30 07:10:45;;;;;;;;;;;;;;;;;;6235014;22;19923;-84
2023/04/30 07:13:11;;;;;;;;;;;;;;;;;;6206700;22;19948;-83
2023/04/30 07:15:46;;;;;;;;;;;;;;;;;;6234699;22;19938;-83
2023/04/30 07:18:16;;;;;;;;;;;;;;;;;;6232716;22;19990;-83
2023/04/30 07:20:53;;;;;;;;;;;;;;;;;;6217854;22;19915;-84
2023/04/30 07:23:31;;;;;;;;;;;;;;;;;;6174953;23;19920;-83
2023/04/30 07:26:18;;;;;;;;;;;;;;;;;;6141372;23;19993;-83
2023/04/30 07:28:46;;;;;;;;;;;;;;;;;;6148522;23;19928;-83
2023/04/30 07:31:19;;;;;;;;;;;;;;;;;;6146602;23;19975;-83
2023/04/30 07:33:55;;;;;;;;;;;;;;;;;;;;;
2023/04/30 07:36:21;;;;;;;;;;;;;;;;;;6194757;23;19963;-84
2023/04/30 07:38:56;;;;;;;;;;;;;;;;;;6197021;23;19974;-83
2023/04/30 07:41:22;;;;;;;;;;;;;;;;;;6145178;23;19920;-83
2023/04/30 07:43:48;;;;;;;;;;;;;;;;;;6148661;23;19916;-84
2023/04/30 07:46:14;;;;;;;;;;;;;;;;;;6144901;23;20296;-84
2023/04/30 07:48:45;;;;;;;;;;;;;;;;;;6171844;23;20291;-83
2023/04/30 07:51:12;;;;;;;;;;;;;;;;;;6143913;23;19923;-83
2023/04/30 07:53:38;;;;;;;;;;;;;;;;;;6153554;22;19924;-83
2023/04/30 07:56:07;;;;;;;;;;;;;;;;;;6206611;22;19992;-84
2023/04/30 07:58:35;;;;;;;;;;;;;;;;;;6209072;22;19915;-83
2023/04/30 08:01:05;;;;;;;;;;;;;;;;;;6231904;22;19926;-83
2023/04/30 08:03:35;;;;;;;;;;;;;;;;;;6211402;22;20735;-84
2023/04/30 08:06:01;;;;;;;;;;;;;;;;;;6207262;22;19923;-83
2023/04/30 08:08:30;;;;;;;;;;;;;;;;;;6234328;22;20332;-83
2023/04/30 08:11:05;;;;;;;;;;;;;;;;;;6208500;22;19995;-83
2023/04/30 08:13:37;;;;;;;;;;;;;;;;;;6210417;22;19924;-83
2023/04/30 08:16:06;;;;;;;;;;;;;;;;;;6233705;22;20022;-84
2023/04/30 08:18:42;;;;;;;;;;;;;;;;;;6207891;22;19970;-83
2023/04/30 08:21:08;;;;;;;;;;;;;;;;;;6207233;22;19919;-84
2023/04/30 08:23:43;;;;;;;;;;;;;;;;;;6210125;22;19965;-84
2023/04/30 08:26:09;;;;;;;;;;;;;;;;;;6231598;22;20360;-83
2023/04/30 08:28:38;;;;;;;;;;;;;;;;;;6209647;22;20444;-84
2023/04/30 08:31:04;;;;;;;;;;;;;;;;;;6204429;22;19954;-83
2023/04/30 08:33:31;;;;;;;;;;;;;;;;;;6209211;22;19923;-83
2023/04/30 08:36:04;;;;;;;;;;;;;;;;;;6231692;22;20221;-84
2023/04/30 08:38:33;;;;;;;;;;;;;;;;;;6208139;22;19919;-84
2023/04/30 08:41:04;;;;;;;;;;;;;;;;;;6211012;22;19923;-83
2023/04/30 08:43:34;;;;;;;;;;;;;;;;;;6209995;22;19941;-84
2023/04/30 08:46:03;;;;;;;;;;;;;;;;;;6207634;22;19931;-83
2023/04/30 08:48:29;;;;;;;;;;;;;;;;;;6208956;22;19955;-83
2023/04/30 08:51:02;;;;;;;;;;;;;;;;;;6237545;22;19969;-83
2023/04/30 08:53:31;;;;;;;;;;;;;;;;;;6207644;22;19923;-85
2023/04/30 08:56:00;;;;;;;;;;;;;;;;;;6211878;22;19965;-84
2023/04/30 08:58:39;;;;;;;;;;;;;;;;;;6241452;22;19919;-84
2023/04/30 09:01:14;;;;;;;;;;;;;;;;;;6236865;22;19979;-87
2023/04/30 09:09:23;;;;;;;;;;;;;;;;;;6266191;22;20628;-86
2023/04/30 09:11:49;;;;;;;;;;;;;;;;;;6236334;22;19919;-84
2023/04/30 09:14:15;;;;;;;;;;;;;;;;;;6236496;22;19923;-83
2023/04/30 09:16:41;;;;;;;;;;;;;;;;;;6215126;22;19954;-83
2023/04/30 09:19:07;;;;;;;;;;;;;;;;;;6212186;22;19922;-82
2023/04/30 09:21:33;;;;;;;;;;;;;;;;;;6239698;22;19915;-83
2023/04/30 09:23:59;;;;;;;;;;;;;;;;;;6214446;22;19919;-83
2023/04/30 09:26:26;;;;;;;;;;;;;;;;;;6236635;22;19919;-83
2023/04/30 09:28:51;;;;;;;;;;;;;;;;;;6214521;22;19923;-83
2023/04/30 09:31:17;;;;;;;;;;;;;;;;;;6238649;22;19919;-83
2023/04/30 09:33:43;;;;;;;;;;;;;;;;;;6241392;22;19920;-83
2023/04/30 09:36:10;;;;;;;;;;;;;;;;;;6238157;22;19915;-83
2023/04/30 09:38:35;;;;;;;;;;;;;;;;;;6238623;22;19919;-83
2023/04/30 09:41:01;;;;;;;;;;;;;;;;;;6236541;22;19930;-83
2023/04/30 09:43:27;;;;;;;;;;;;;;;;;;6239353;22;19973;-84
2023/04/30 09:45:53;;;;;;;;;;;;;;;;;;6239773;22;20535;-84
2023/04/30 09:48:19;;;;;;;;;;;;;;;;;;6262522;22;20706;-83
2023/04/30 09:50:46;;;;;;;;;;;;;;;;;;6265569;22;19952;-83
2023/04/30 09:53:16;;;;;;;;;;;;;;;;;;6263519;22;19931;-84
2023/04/30 09:55:42;;;;;;;;;;;;;;;;;;6236226;22;19988;-84
2023/04/30 09:58:08;;;;;;;;;;;;;;;;;;6238506;22;20336;-84
2023/04/30 10:00:34;;;;;;;;;;;;;;;;;;6268123;22;19930;-84
2023/04/30 10:03:00;;;;;;;;;;;;;;;;;;6267403;22;19923;-84
2023/04/30 10:05:27;;;;;;;;;;;;;;;;;;6215854;22;20002;-83
2023/04/30 10:07:53;;;;;;;;;;;;;;;;;;6212831;22;19924;-84
2023/04/30 10:10:19;;;;;;;;;;;;;;;;;;6237011;22;19942;-83
2023/04/30 10:12:45;;;;;;;;;;;;;;;;;;6269225;22;20045;-84
2023/04/30 10:15:11;;;;;;;;;;;;;;;;;;6265691;22;19934;-84
2023/04/30 10:17:39;;;;;;;;;;;;;;;;;;6265582;22;19968;-84
2023/04/30 10:20:06;;;;;;;;;;;;;;;;;;6264345;22;19922;-85
2023/04/30 10:22:32;;;;;;;;;;;;;;;;;;6266244;22;20262;-84
2023/04/30 10:24:58;;;;;;;;;;;;;;;;;;6238447;22;19919;-84
2023/04/30 10:27:24;;;;;;;;;;;;;;;;;;6261626;22;20335;-84
2023/04/30 10:29:50;;;;;;;;;;;;;;;;;;6266141;22;19915;-84
2023/04/30 10:32:16;;;;;;;;;;;;;;;;;;6262961;22;19919;-83
2023/04/30 10:34:44;;;;;;;;;;;;;;;;;;6264224;22;20669;-84
2023/04/30 10:37:10;;;;;;;;;;;;;;;;;;6261947;22;20244;-84
2023/04/30 10:39:39;;;;;;;;;;;;;;;;;;6266738;22;19919;-87
2023/04/30 10:42:05;;;;;;;;;;;;;;;;;;6262561;22;19923;-83
2023/04/30 10:44:52;;;;;;;;;;;;;;;;;;6265006;22;20594;-84
2023/04/30 10:47:18;;;;;;;;;;;;;;;;;;6232008;22;19919;-83
2023/04/30 10:49:46;;;;;;;;;;;;;;;;;;6213066;22;19962;-83
2023/04/30 10:52:12;;;;;;;;;;;;;;;;;;6209434;22;19926;-84
2023/04/30 10:54:38;;;;;;;;;;;;;;;;;;6210804;22;20018;-84
2023/04/30 10:57:04;;;;;;;;;;;;;;;;;;6236190;22;19968;-83
2023/04/30 10:59:30;;;;;;;;;;;;;;;;;;6214023;22;19923;-84
2023/04/30 11:01:56;;;;;;;;;;;;;;;;;;6212370;22;19962;-84
2023/04/30 11:04:23;;;;;;;;;;;;;;;;;;6210405;22;20310;-84
2023/04/30 11:06:49;;;;;;;;;;;;;;;;;;6212168;22;20340;-84
2023/04/30 11:09:15;;;;;;;;;;;;;;;;;;6236219;22;20279;-84
2023/04/30 11:11:41;;;;;;;;;;;;;;;;;;6212019;22;19972;-84
2023/04/30 11:14:07;;;;;;;;;;;;;;;;;;6211680;22;19969;-84
2023/04/30 11:16:33;;;;;;;;;;;;;;;;;;6238927;22;19927;-84
2023/04/30 11:18:59;;;;;;;;;;;;;;;;;;6238238;22;19919;-84
2023/04/30 11:21:25;;;;;;;;;;;;;;;;;;6213296;22;20370;-84
2023/04/30 11:23:51;;;;;;;;;;;;;;;;;;6238515;22;19990;-84
2023/04/30 11:26:17;;;;;;;;;;;;;;;;;;6210143;22;20497;-85
2023/04/30 11:28:43;;;;;;;;;;;;;;;;;;6212823;22;20337;-83
2023/04/30 11:31:09;;;;;;;;;;;;;;;;;;6235818;22;19920;-84
2023/04/30 11:33:35;;;;;;;;;;;;;;;;;;6214276;22;19923;-84
2023/04/30 11:36:01;;;;;;;;;;;;;;;;;;6238345;22;20128;-84
2023/04/30 11:38:27;;;;;;;;;;;;;;;;;;6238451;22;19923;-84
2023/04/30 11:40:53;;;;;;;;;;;;;;;;;;6215112;22;19986;-84
2023/04/30 11:43:19;;;;;;;;;;;;;;;;;;6210608;22;20383;-83
2023/04/30 11:45:46;;;;;;;;;;;;;;;;;;6238159;22;19919;-83
2023/04/30 11:48:13;;;;;;;;;;;;;;;;;;6233909;22;19924;-83
2023/04/30 11:50:39;;;;;;;;;;;;;;;;;;6211898;22;19919;-83
2023/04/30 11:53:07;;;;;;;;;;;;;;;;;;6211314;22;19977;-84
2023/04/30 11:55:33;;;;;;;;;;;;;;;;;;6213661;22;19919;-84
2023/04/30 11:58:02;;;;;;;;;;;;;;;;;;6212756;22;19987;-84
2023/04/30 12:00:32;;;;;;;;;;;;;;;;;;6214465;22;20279;-84
2023/04/30 12:03:03;;;;;;;;;;;;;;;;;;6212811;22;19930;-84
2023/04/30 12:05:38;;;;;;;;;;;;;;;;;;6215132;22;20366;-84
2023/04/30 12:08:23;;;;;;;;;;;;;;;;;;;;;
2023/04/30 12:10:59;;;;;;;;;;;;;;;;;;6250564;22;19955;-84
2023/04/30 12:13:28;;;;;;;;;;;;;;;;;;6213090;22;19923;-84
2023/04/30 12:15:57;;;;;;;;;;;;;;;;;;6241567;22;20281;-84
2023/04/30 12:18:26;;;;;;;;;;;;;;;;;;6217146;22;19926;-84
2023/04/30 12:24:11;;;;;;;;;;;;;;;;;;6144290;23;19988;-84
2023/04/30 12:27:15;;;;;;;;;;;;;;;;;;;;;
2023/04/30 12:33:05;;;;;;;;;;;;;;;;;;6086494;23;19921;-84
2023/04/30 12:38:55;;;;;;;;;;;;;;;;;;6056377;23;20358;-84
2023/04/30 12:41:40;;;;;;;;;;;;;;;;;;;;;
2023/04/30 12:44:21;;;;;;;;;;;;;;;;;;6118656;23;19935;-84
2023/04/30 12:49:53;;;;;;;;;;;;;;;;;;6121552;23;19917;-84
2023/04/30 12:52:57;;;;;;;;;;;;;;;;;;6100434;23;19943;-84
2023/04/30 12:55:42;;;;;;;;;;;;;;;;;;;;;
2023/04/30 13:03:58;;;;;;;;;;;;;;;;;;6119161;23;19916;-84
2023/04/30 13:09:46;;;;;;;;;;;;;;;;;;6162802;23;19924;-84
2023/04/30 13:12:28;;;;;;;;;;;;;;;;;;;;;
2023/04/30 13:15:12;;;;;;;;;;;;;;;;;;6144160;23;19921;-84
2023/04/30 13:17:55;;;;;;;;;;;;;;;;;;6119183;23;19916;-84
2023/04/30 13:20:37;;;;;;;;;;;;;;;;;;6094549;23;19920;-84
2023/04/30 13:23:30;;;;;;;;;;;;;;;;;;6024525;23;20004;-84
2023/04/30 13:26:15;;;;;;;;;;;;;;;;;;;;;
2023/04/30 13:29:01;;;;;;;;;;;;;;;;;;6114422;23;19917;-84
2023/04/30 13:34:58;;;;;;;;;;;;;;;;;;6086235;23;19932;-84
2023/04/30 13:37:52;;;;;;;;;;;;;;;;;;6110011;23;20404;-84
2023/04/30 13:43:25;;;;;;;;;;;;;;;;;;6112758;23;19925;-84
2023/04/30 13:46:12;;;;;;;;;;;;;;;;;;6120074;23;20330;-84
2023/04/30 13:48:46;;;;;;;;;;;;;;;;;;6117161;23;20266;-84
2023/04/30 13:51:43;;;;;;;;;;;;;;;;;;6142186;23;19921;-84
2023/04/30 13:54:40;;;;;;;;;;;;;;;;;;6105172;23;19960;-84
2023/04/30 14:00:05;;;;;;;;;;;;;;;;;;6073021;23;20279;-84
2023/04/30 14:02:31;;;;;;;;;;;;;;;;;;6084861;23;19920;-81
2023/04/30 14:04:58;;;;;;;;;;;;;;;;;;6112502;23;19931;-81
2023/04/30 14:07:24;;;;;;;;;;;;;;;;;;6109171;23;19922;-81
2023/04/30 14:09:52;;;;;;;;;;;;;;;;;;6090610;23;20329;-82
2023/04/30 14:12:20;;;;;;;;;;;;;;;;;;6084638;23;19947;-83
2023/04/30 14:14:46;;;;;;;;;;;;;;;;;;6132013;23;19924;-81
2023/04/30 14:17:15;;;;;;;;;;;;;;;;;;6114916;23;19920;-81
2023/04/30 14:19:41;;;;;;;;;;;;;;;;;;6171568;23;19919;-81
2023/04/30 14:22:07;;;;;;;;;;;;;;;;;;6197484;23;19922;-81
2023/04/30 14:24:34;;;;;;;;;;;;;;;;;;6176646;23;20311;-80
2023/04/30 14:27:02;;;;;;;;;;;;;;;;;;6148924;22;19920;-81
2023/04/30 14:29:28;;;;;;;;;;;;;;;;;;6212119;22;19947;-81
2023/04/30 14:31:54;;;;;;;;;;;;;;;;;;6211205;22;19919;-81
2023/04/30 14:34:20;;;;;;;;;;;;;;;;;;6237294;22;19927;-81
2023/04/30 14:36:46;;;;;;;;;;;;;;;;;;6237765;22;19930;-81
2023/04/30 14:39:13;;;;;;;;;;;;;;;;;;6210637;22;20298;-81
2023/04/30 14:41:39;;;;;;;;;;;;;;;;;;6212395;22;19959;-81
2023/04/30 14:44:05;;;;;;;;;;;;;;;;;;6235083;22;19953;-81
2023/04/30 14:46:32;;;;;;;;;;;;;;;;;;6213143;22;19919;-81
2023/04/30 14:49:00;;;;;;;;;;;;;;;;;;6235764;22;19919;-81
2023/04/30 14:51:27;;;;;;;;;;;;;;;;;;6234218;22;19986;-80
2023/04/30 14:53:53;;;;;;;;;;;;;;;;;;6234753;22;19934;-81
2023/04/30 14:56:19;;;;;;;;;;;;;;;;;;6238570;22;19923;-81
2023/04/30 14:58:45;;;;;;;;;;;;;;;;;;6211829;22;19927;-81
2023/04/30 15:01:11;;;;;;;;;;;;;;;;;;6236237;22;19947;-81
2023/04/30 15:03:37;;;;;;;;;;;;;;;;;;6211369;22;19916;-81
2023/04/30 15:06:03;;;;;;;;;;;;;;;;;;6210754;22;19920;-81
2023/04/30 15:08:29;;;;;;;;;;;;;;;;;;6210156;22;19946;-80
2023/04/30 15:10:56;;;;;;;;;;;;;;;;;;6213334;22;19919;-81
2023/04/30 15:13:22;;;;;;;;;;;;;;;;;;6210696;22;20385;-81
2023/04/30 15:15:48;;;;;;;;;;;;;;;;;;6212304;22;20338;-82
2023/04/30 15:18:14;;;;;;;;;;;;;;;;;;6233064;22;20613;-81
2023/04/30 15:20:40;;;;;;;;;;;;;;;;;;6236089;22;19986;-82
2023/04/30 15:23:07;;;;;;;;;;;;;;;;;;6237345;22;20422;-81
2023/04/30 15:25:33;;;;;;;;;;;;;;;;;;6239237;22;20320;-82
2023/04/30 15:27:59;;;;;;;;;;;;;;;;;;6239038;22;19920;-82
2023/04/30 15:30:25;;;;;;;;;;;;;;;;;;6208852;22;19915;-82
2023/04/30 15:32:51;;;;;;;;;;;;;;;;;;6238660;22;19923;-83
2023/04/30 15:35:20;;;;;;;;;;;;;;;;;;6209997;22;19988;-86
2023/04/30 15:37:49;;;;;;;;;;;;;;;;;;6211146;22;19919;-81
2023/04/30 15:40:15;;;;;;;;;;;;;;;;;;6233362;22;19919;-82
2023/04/30 15:42:41;;;;;;;;;;;;;;;;;;6214338;22;19942;-82
2023/04/30 15:45:08;;;;;;;;;;;;;;;;;;6236285;22;20403;-81
2023/04/30 15:47:34;;;;;;;;;;;;;;;;;;6237955;22;20465;-82
2023/04/30 15:50:00;;;;;;;;;;;;;;;;;;6215132;22;19923;-82
2023/04/30 15:52:26;;;;;;;;;;;;;;;;;;6214359;22;19922;-81
2023/04/30 15:54:52;;;;;;;;;;;;;;;;;;6240810;22;19935;-82
2023/04/30 15:57:18;;;;;;;;;;;;;;;;;;6238976;22;19919;-82
2023/04/30 15:59:44;;;;;;;;;;;;;;;;;;6237769;22;19965;-81
2023/04/30 16:02:10;;;;;;;;;;;;;;;;;;6210472;22;19923;-81
2023/04/30 16:04:36;;;;;;;;;;;;;;;;;;6240610;22;19915;-81
2023/04/30 16:07:03;;;;;;;;;;;;;;;;;;6212287;22;19916;-81
2023/04/30 16:09:29;;;;;;;;;;;;;;;;;;6240307;22;20017;-81
2023/04/30 16:11:55;;;;;;;;;;;;;;;;;;6241299;22;19976;-81
2023/04/30 16:14:21;;;;;;;;;;;;;;;;;;6204874;22;20361;-81
2023/04/30 16:16:47;;;;;;;;;;;;;;;;;;6214068;22;19942;-81
2023/04/30 16:19:13;;;;;;;;;;;;;;;;;;6211207;22;19990;-81
2023/04/30 16:21:39;;;;;;;;;;;;;;;;;;6239386;22;20252;-81
2023/04/30 16:24:05;;;;;;;;;;;;;;;;;;6239125;22;19995;-83
2023/04/30 16:26:33;;;;;;;;;;;;;;;;;;6214240;22;20283;-81
2023/04/30 16:28:59;;;;;;;;;;;;;;;;;;6241178;22;20298;-81
2023/04/30 16:31:25;;;;;;;;;;;;;;;;;;6214201;22;19968;-81
2023/04/30 16:33:51;;;;;;;;;;;;;;;;;;6241677;22;19923;-81
2023/04/30 16:36:17;;;;;;;;;;;;;;;;;;6238435;22;19994;-81
2023/04/30 16:38:45;;;;;;;;;;;;;;;;;;6214755;22;19962;-81
2023/04/30 16:41:11;;;;;;;;;;;;;;;;;;6214266;22;19986;-81
2023/04/30 16:43:37;;;;;;;;;;;;;;;;;;6241799;22;19954;-81
2023/04/30 16:46:03;;;;;;;;;;;;;;;;;;6215121;22;19915;-81
2023/04/30 16:48:29;;;;;;;;;;;;;;;;;;6212909;22;19958;-81
2023/04/30 16:50:55;;;;;;;;;;;;;;;;;;6214251;22;20006;-82
2023/04/30 16:53:21;;;;;;;;;;;;;;;;;;6211948;22;20470;-81
2023/04/30 16:55:47;;;;;;;;;;;;;;;;;;6215660;22;19946;-81
2023/04/30 16:58:13;;;;;;;;;;;;;;;;;;6238391;22;20344;-81
2023/04/30 17:00:39;;;;;;;;;;;;;;;;;;6239152;22;19919;-81
2023/04/30 17:03:05;;;;;;;;;;;;;;;;;;6239653;22;19939;-81
2023/04/30 17:05:31;;;;;;;;;;;;;;;;;;6241809;22;19919;-81
2023/04/30 17:07:57;;;;;;;;;;;;;;;;;;6239420;22;20359;-81
2023/04/30 17:10:23;;;;;;;;;;;;;;;;;;6213342;22;19919;-81
2023/04/30 17:12:49;;;;;;;;;;;;;;;;;;6242675;22;20032;-81
2023/04/30 17:15:17;;;;;;;;;;;;;;;;;;6213941;22;19926;-81
2023/04/30 17:17:46;;;;;;;;;;;;;;;;;;6213770;22;19926;-84
2023/04/30 17:20:12;;;;;;;;;;;;;;;;;;6237820;22;19931;-81
2023/04/30 17:35:25;;;;;;;;;;;;;;;;;;;;;
2023/04/30 17:38:41;;;;;;;;;;;;;;;;;;6226152;23;20383;-84
2023/04/30 17:41:19;;;;;;;;;;;;;;;;;;6205238;23;19919;-84
2023/04/30 17:46:37;;;;;;;;;;;;;;;;;;6129326;23;20184;-84
2023/04/30 17:51:59;;;;;;;;;;;;;;;;;;6117402;23;19917;-84
2023/04/30 17:54:41;;;;;;;;;;;;;;;;;;;;;
2023/04/30 17:57:08;;;;;;;;;;;;;;;;;;6117463;23;19925;-84
2023/04/30 18:02:35;;;;;;;;;;;;;;;;;;6141650;23;20321;-84
2023/04/30 18:05:20;;;;;;;;;;;;;;;;;;6150100;23;20289;-84
2023/04/30 18:07:59;;;;;;;;;;;;;;;;;;6125604;23;20350;-84
2023/04/30 18:10:58;;;;;;;;;;;;;;;;;;6173473;23;19930;-84
2023/04/30 18:13:33;;;;;;;;;;;;;;;;;;6147602;23;19975;-84
2023/04/30 18:19:17;;;;;;;;;;;;;;;;;;6091478;23;19921;-84
2023/04/30 18:21:56;;;;;;;;;;;;;;;;;;6035769;23;19929;-84
2023/04/30 18:24:32;;;;;;;;;;;;;;;;;;6067384;23;19949;-84
2023/04/30 18:27:06;;;;;;;;;;;;;;;;;;6087423;23;19921;-84
2023/04/30 18:29:38;;;;;;;;;;;;;;;;;;6140712;23;21696;-84
2023/04/30 18:37:50;;;;;;;;;;;;;;;;;;6175885;23;19920;-84
2023/04/30 18:40:19;;;;;;;;;;;;;;;;;;6115921;23;19917;-83
2023/04/30 18:45:40;;;;;;;;;;;;;;;;;;6111355;23;20365;-83
2023/04/30 18:48:09;;;;;;;;;;;;;;;;;;6136253;23;19921;-84
2023/04/30 18:50:38;;;;;;;;;;;;;;;;;;6141678;23;19921;-84
2023/04/30 18:53:10;;;;;;;;;;;;;;;;;;6116394;23;19920;-84
2023/04/30 18:58:37;;;;;;;;;;;;;;;;;;6055697;23;19928;-84